sensor_id;sensor_type;location;lat;lon;timestamp;pressure;altitude;pressure_sealevel;temperature;humidity
77062;BME280;65989;51.686;5.138;2024-03-07T00:00:21;102689.94;;;3.64;100.00
77062;BME280;65989;51.686;5.138;2024-03-07T00:02:48;102690.25;;;3.61;100.00
77062;BME280;65989;51.686;5.138;2024-03-07T00:05:17;102692.22;;;3.59;100.00
77062;BME280;65989;51.686;5.138;2024-03-07T00:07:44;102685.47;;;3.56;100.00
77062;BME280;65989;51.686;5.138;2024-03-07T00:10:10;102688.56;;;3.52;100.00
77062;BME280;65989;51.686;5.138;2024-03-07T00:12:36;102690.34;;;3.51;100.00
77062;BME280;65989;51.686;5.138;2024-03-07T00:15:07;102682.97;;;3.47;100.00
77062;BME280;65989;51.686;5.138;2024-03-07T00:17:33;102683.31;;;3.43;100.00
77062;BME280;65989;51.686;5.138;2024-03-07T00:20:00;102686.25;;;3.40;100.00
77062;BME280;65989;51.686;5.138;2024-03-07T00:22:25;102686.56;;;3.37;100.00
77062;BME280;65989;51.686;5.138;2024-03-07T00:24:53;102694.59;;;3.36;100.00
77062;BME280;65989;51.686;5.138;2024-03-07T00:27:18;102694.91;;;3.33;100.00
77062;BME280;65989;51.686;5.138;2024-03-07T00:29:46;102689.97;;;3.29;100.00
77062;BME280;65989;51.686;5.138;2024-03-07T00:32:20;102687.66;;;3.26;100.00
77062;BME280;65989;51.686;5.138;2024-03-07T00:34:47;102683.56;;;3.24;100.00
77062;BME280;65989;51.686;5.138;2024-03-07T00:37:12;102692.41;;;3.23;100.00
77062;BME280;65989;51.686;5.138;2024-03-07T00:39:38;102688.59;;;3.17;100.00
77062;BME280;65989;51.686;5.138;2024-03-07T00:42:03;102682.69;;;3.15;100.00
77062;BME280;65989;51.686;5.138;2024-03-07T00:44:29;102683.84;;;3.12;100.00
77062;BME280;65989;51.686;5.138;2024-03-07T00:46:54;102679.91;;;3.08;100.00
77062;BME280;65989;51.686;5.138;2024-03-07T00:49:20;102680.88;;;3.07;100.00
77062;BME280;65989;51.686;5.138;2024-03-07T00:51:45;102672.66;;;3.02;100.00
77062;BME280;65989;51.686;5.138;2024-03-07T00:54:11;102674.63;;;3.00;100.00
77062;BME280;65989;51.686;5.138;2024-03-07T00:56:38;102673.81;;;2.99;100.00
77062;BME280;65989;51.686;5.138;2024-03-07T00:59:04;102673.97;;;2.98;100.00
77062;BME280;65989;51.686;5.138;2024-03-07T01:01:31;102665.78;;;3.01;100.00
77062;BME280;65989;51.686;5.138;2024-03-07T01:03:58;102665.47;;;3.04;100.00
77062;BME280;65989;51.686;5.138;2024-03-07T01:06:23;102663.53;;;3.06;100.00
77062;BME280;65989;51.686;5.138;2024-03-07T01:08:49;102665.47;;;3.04;100.00
77062;BME280;65989;51.686;5.138;2024-03-07T01:11:15;102667.94;;;3.06;100.00
77062;BME280;65989;51.686;5.138;2024-03-07T01:13:41;102664.19;;;3.08;100.00
77062;BME280;65989;51.686;5.138;2024-03-07T01:16:07;102665.81;;;3.09;100.00
77062;BME280;65989;51.686;5.138;2024-03-07T01:18:33;102665.81;;;3.09;100.00
77062;BME280;65989;51.686;5.138;2024-03-07T01:21:00;102669.78;;;3.13;100.00
77062;BME280;65989;51.686;5.138;2024-03-07T01:23:25;102666.50;;;3.11;100.00
77062;BME280;65989;51.686;5.138;2024-03-07T01:25:51;102658.13;;;3.08;100.00
77062;BME280;65989;51.686;5.138;2024-03-07T01:28:17;102657.66;;;3.12;100.00
77062;BME280;65989;51.686;5.138;2024-03-07T01:30:43;102653.41;;;3.11;100.00
77062;BME280;65989;51.686;5.138;2024-03-07T01:33:09;102660.94;;;3.14;100.00
77062;BME280;65989;51.686;5.138;2024-03-07T01:35:34;102654.03;;;3.05;100.00
77062;BME280;65989;51.686;5.138;2024-03-07T01:38:01;102649.09;;;3.02;100.00
77062;BME280;65989;51.686;5.138;2024-03-07T01:40:28;102650.06;;;3.01;100.00
77062;BME280;65989;51.686;5.138;2024-03-07T01:42:54;102653.03;;;2.98;100.00
77062;BME280;65989;51.686;5.138;2024-03-07T01:45:20;102649.75;;;2.96;100.00
77062;BME280;65989;51.686;5.138;2024-03-07T01:47:45;102650.06;;;2.93;100.00
77062;BME280;65989;51.686;5.138;2024-03-07T01:50:11;102646.59;;;2.92;100.00
77062;BME280;65989;51.686;5.138;2024-03-07T01:52:39;102634.66;;;2.90;100.00
77062;BME280;65989;51.686;5.138;2024-03-07T01:55:07;102639.22;;;2.88;100.00
77062;BME280;65989;51.686;5.138;2024-03-07T01:57:32;102646.25;;;2.87;100.00
77062;BME280;65989;51.686;5.138;2024-03-07T01:59:59;102644.91;;;2.83;100.00
77062;BME280;65989;51.686;5.138;2024-03-07T02:02:25;102641.66;;;2.81;100.00
77062;BME280;65989;51.686;5.138;2024-03-07T02:04:51;102634.78;;;2.80;100.00
77062;BME280;65989;51.686;5.138;2024-03-07T02:07:16;102635.09;;;2.77;100.00
77062;BME280;65989;51.686;5.138;2024-03-07T02:09:42;102629.00;;;2.76;100.00
77062;BME280;65989;51.686;5.138;2024-03-07T02:12:07;102627.00;;;2.70;100.00
77062;BME280;65989;51.686;5.138;2024-03-07T02:14:34;102628.97;;;2.68;100.00
77062;BME280;65989;51.686;5.138;2024-03-07T02:16:59;102625.69;;;2.66;100.00
77062;BME280;65989;51.686;5.138;2024-03-07T02:19:25;102633.03;;;2.62;100.00
77062;BME280;65989;51.686;5.138;2024-03-07T02:21:51;102632.38;;;2.60;100.00
77062;BME280;65989;51.686;5.138;2024-03-07T02:24:16;102628.28;;;2.58;100.00
77062;BME280;65989;51.686;5.138;2024-03-07T02:26:42;102631.88;;;2.57;100.00
77062;BME280;65989;51.686;5.138;2024-03-07T02:29:07;102620.88;;;2.53;100.00
77062;BME280;65989;51.686;5.138;2024-03-07T02:31:33;102622.16;;;2.49;100.00
77062;BME280;65989;51.686;5.138;2024-03-07T02:34:05;102623.16;;;2.48;100.00
77062;BME280;65989;51.686;5.138;2024-03-07T02:36:33;102627.06;;;2.44;100.00
77062;BME280;65989;51.686;5.138;2024-03-07T02:38:59;102620.31;;;2.41;100.00
77062;BME280;65989;51.686;5.138;2024-03-07T02:41:25;102618.00;;;2.38;100.00
77062;BME280;65989;51.686;5.138;2024-03-07T02:43:52;102610.81;;;2.40;100.00
77062;BME280;65989;51.686;5.138;2024-03-07T02:46:18;102615.09;;;2.41;100.00
77062;BME280;65989;51.686;5.138;2024-03-07T02:48:44;102611.28;;;2.35;100.00
77062;BME280;65989;51.686;5.138;2024-03-07T02:51:10;102610.94;;;2.30;100.00
77062;BME280;65989;51.686;5.138;2024-03-07T02:53:36;102608.00;;;2.33;100.00
77062;BME280;65989;51.686;5.138;2024-03-07T02:56:03;102613.25;;;2.33;100.00
77062;BME280;65989;51.686;5.138;2024-03-07T02:58:29;102607.50;;;2.30;100.00
77062;BME280;65989;51.686;5.138;2024-03-07T03:00:57;102611.78;;;2.31;100.00
77062;BME280;65989;51.686;5.138;2024-03-07T03:03:23;102607.81;;;2.27;100.00
77062;BME280;65989;51.686;5.138;2024-03-07T03:05:48;102606.19;;;2.26;100.00
77062;BME280;65989;51.686;5.138;2024-03-07T03:08:14;102599.31;;;2.24;100.00
77062;BME280;65989;51.686;5.138;2024-03-07T03:10:40;102603.69;;;2.24;100.00
77062;BME280;65989;51.686;5.138;2024-03-07T03:13:06;102605.88;;;2.29;100.00
77062;BME280;65989;51.686;5.138;2024-03-07T03:15:33;102600.34;;;2.32;100.00
77062;BME280;65989;51.686;5.138;2024-03-07T03:18:00;102599.31;;;2.33;100.00
77062;BME280;65989;51.686;5.138;2024-03-07T03:20:26;102594.75;;;2.35;100.00
77062;BME280;65989;51.686;5.138;2024-03-07T03:22:56;102589.09;;;2.39;100.00
77062;BME280;65989;51.686;5.138;2024-03-07T03:25:22;102591.41;;;2.43;100.00
77062;BME280;65989;51.686;5.138;2024-03-07T03:27:48;102587.50;;;2.47;100.00
77062;BME280;65989;51.686;5.138;2024-03-07T03:30:14;102590.25;;;2.45;100.00
77062;BME280;65989;51.686;5.138;2024-03-07T03:32:40;102591.09;;;2.46;100.00
77062;BME280;65989;51.686;5.138;2024-03-07T03:35:07;102584.22;;;2.45;100.00
77062;BME280;65989;51.686;5.138;2024-03-07T03:37:44;102589.59;;;2.43;100.00
77062;BME280;65989;51.686;5.138;2024-03-07T03:40:10;102579.66;;;2.47;100.00
77062;BME280;65989;51.686;5.138;2024-03-07T03:42:37;102580.28;;;2.49;100.00
77062;BME280;65989;51.686;5.138;2024-03-07T03:45:04;102582.41;;;2.45;100.00
77062;BME280;65989;51.686;5.138;2024-03-07T03:47:34;102571.88;;;2.37;100.00
77062;BME280;65989;51.686;5.138;2024-03-07T03:52:29;102571.75;;;2.38;100.00
77062;BME280;65989;51.686;5.138;2024-03-07T03:54:54;102575.34;;;2.37;100.00
77062;BME280;65989;51.686;5.138;2024-03-07T03:57:20;102582.22;;;2.38;100.00
77062;BME280;65989;51.686;5.138;2024-03-07T03:59:45;102579.44;;;2.40;100.00
77062;BME280;65989;51.686;5.138;2024-03-07T04:02:11;102586.31;;;2.41;100.00
77062;BME280;65989;51.686;5.138;2024-03-07T04:04:40;102578.81;;;2.46;100.00
77062;BME280;65989;51.686;5.138;2024-03-07T04:07:05;102575.22;;;2.47;100.00
77062;BME280;65989;51.686;5.138;2024-03-07T04:09:31;102572.28;;;2.50;100.00
77062;BME280;65989;51.686;5.138;2024-03-07T04:11:56;102578.50;;;2.49;100.00
77062;BME280;65989;51.686;5.138;2024-03-07T04:14:23;102566.41;;;2.48;100.00
77062;BME280;65989;51.686;5.138;2024-03-07T04:16:48;102571.94;;;2.45;100.00
77062;BME280;65989;51.686;5.138;2024-03-07T04:19:13;102567.53;;;2.46;100.00
77062;BME280;65989;51.686;5.138;2024-03-07T04:21:39;102566.56;;;2.47;100.00
77062;BME280;65989;51.686;5.138;2024-03-07T04:24:05;102570.16;;;2.46;100.00
77062;BME280;65989;51.686;5.138;2024-03-07T04:26:30;102565.91;;;2.45;100.00
77062;BME280;65989;51.686;5.138;2024-03-07T04:28:55;102561.78;;;2.42;100.00
77062;BME280;65989;51.686;5.138;2024-03-07T04:31:21;102565.38;;;2.41;100.00
77062;BME280;65989;51.686;5.138;2024-03-07T04:33:47;102566.81;;;2.35;100.00
77062;BME280;65989;51.686;5.138;2024-03-07T04:36:12;102563.72;;;2.32;100.00
77062;BME280;65989;51.686;5.138;2024-03-07T04:38:38;102559.13;;;2.34;100.00
77062;BME280;65989;51.686;5.138;2024-03-07T04:41:03;102560.75;;;2.35;100.00
77062;BME280;65989;51.686;5.138;2024-03-07T04:43:29;102566.81;;;2.35;100.00
77062;BME280;65989;51.686;5.138;2024-03-07T04:45:54;102560.75;;;2.35;100.00
77062;BME280;65989;51.686;5.138;2024-03-07T04:48:20;102560.75;;;2.35;100.00
77062;BME280;65989;51.686;5.138;2024-03-07T04:50:46;102561.72;;;2.34;100.00
77062;BME280;65989;51.686;5.138;2024-03-07T04:53:11;102562.69;;;2.33;100.00
77062;BME280;65989;51.686;5.138;2024-03-07T04:55:37;102558.31;;;2.33;100.00
77062;BME280;65989;51.686;5.138;2024-03-07T04:58:02;102553.38;;;2.30;100.00
77062;BME280;65989;51.686;5.138;2024-03-07T05:00:28;102550.94;;;2.29;100.00
77062;BME280;65989;51.686;5.138;2024-03-07T05:02:56;102558.78;;;2.29;100.00
77062;BME280;65989;51.686;5.138;2024-03-07T05:05:22;102553.19;;;2.23;100.00
77062;BME280;65989;51.686;5.138;2024-03-07T05:07:48;102565.44;;;2.23;100.00
77062;BME280;65989;51.686;5.138;2024-03-07T05:10:15;102566.28;;;2.23;100.00
77062;BME280;65989;51.686;5.138;2024-03-07T05:12:40;102562.00;;;2.22;100.00
77062;BME280;65989;51.686;5.138;2024-03-07T05:15:06;102564.75;;;2.21;100.00
77062;BME280;65989;51.686;5.138;2024-03-07T05:17:35;102564.25;;;2.17;100.00
77062;BME280;65989;51.686;5.138;2024-03-07T05:20:03;102563.97;;;2.20;100.00
77062;BME280;65989;51.686;5.138;2024-03-07T05:22:35;102568.53;;;2.18;100.00
77062;BME280;65989;51.686;5.138;2024-03-07T05:25:00;102567.38;;;2.21;100.00
77062;BME280;65989;51.686;5.138;2024-03-07T05:27:26;102562.31;;;2.19;100.00
77062;BME280;65989;51.686;5.138;2024-03-07T05:29:52;102564.09;;;2.19;100.00
77062;BME280;65989;51.686;5.138;2024-03-07T05:32:27;102567.00;;;2.16;100.00
77062;BME280;65989;51.686;5.138;2024-03-07T05:34:55;102566.38;;;2.14;100.00
77062;BME280;65989;51.686;5.138;2024-03-07T05:37:21;102560.31;;;2.13;100.00
77062;BME280;65989;51.686;5.138;2024-03-07T05:39:50;102563.91;;;2.12;100.00
77062;BME280;65989;51.686;5.138;2024-03-07T05:42:16;102554.72;;;2.08;100.00
77062;BME280;65989;51.686;5.138;2024-03-07T05:44:42;102563.69;;;2.05;100.00
77062;BME280;65989;51.686;5.138;2024-03-07T05:47:09;102561.09;;;2.05;100.00
77062;BME280;65989;51.686;5.138;2024-03-07T05:49:35;102561.22;;;2.04;100.00
77062;BME280;65989;51.686;5.138;2024-03-07T05:52:05;102561.38;;;2.02;100.00
77062;BME280;65989;51.686;5.138;2024-03-07T05:54:33;102568.94;;;2.05;100.00
77062;BME280;65989;51.686;5.138;2024-03-07T05:56:59;102568.09;;;2.05;100.00
77062;BME280;65989;51.686;5.138;2024-03-07T05:59:25;102560.25;;;2.05;100.00
77062;BME280;65989;51.686;5.138;2024-03-07T06:01:50;102571.84;;;2.02;100.00
77062;BME280;65989;51.686;5.138;2024-03-07T06:04:16;102564.97;;;2.01;100.00
77062;BME280;65989;51.686;5.138;2024-03-07T06:06:42;102565.13;;;2.00;100.00
77062;BME280;65989;51.686;5.138;2024-03-07T06:09:09;102564.47;;;1.98;100.00
77062;BME280;65989;51.686;5.138;2024-03-07T06:11:38;102565.28;;;1.98;100.00
77062;BME280;65989;51.686;5.138;2024-03-07T06:14:05;102562.50;;;2.00;100.00
77062;BME280;65989;51.686;5.138;2024-03-07T06:16:32;102563.03;;;2.03;100.00
77062;BME280;65989;51.686;5.138;2024-03-07T06:18:59;102563.84;;;2.04;100.00
77062;BME280;65989;51.686;5.138;2024-03-07T06:21:27;102566.44;;;2.04;100.00
77062;BME280;65989;51.686;5.138;2024-03-07T06:23:55;102567.13;;;2.06;100.00
77062;BME280;65989;51.686;5.138;2024-03-07T06:26:36;102556.66;;;2.06;100.00
77062;BME280;65989;51.686;5.138;2024-03-07T06:29:25;102559.94;;;2.08;100.00
77062;BME280;65989;51.686;5.138;2024-03-07T06:31:54;102562.44;;;2.09;100.00
77062;BME280;65989;51.686;5.138;2024-03-07T06:34:19;102564.06;;;2.11;100.00
77062;BME280;65989;51.686;5.138;2024-03-07T06:36:45;102563.59;;;2.15;100.00
77062;BME280;65989;51.686;5.138;2024-03-07T06:39:10;102564.09;;;2.19;100.00
77062;BME280;65989;51.686;5.138;2024-03-07T06:41:36;102556.59;;;2.24;100.00
77062;BME280;65989;51.686;5.138;2024-03-07T06:44:02;102560.72;;;2.27;100.00
77062;BME280;65989;51.686;5.138;2024-03-07T06:46:28;102552.72;;;2.28;100.00
77062;BME280;65989;51.686;5.138;2024-03-07T06:48:54;102556.00;;;2.30;100.00
77062;BME280;65989;51.686;5.138;2024-03-07T06:51:21;102546.88;;;2.34;100.00
77062;BME280;65989;51.686;5.138;2024-03-07T06:53:47;102547.38;;;2.38;100.00
77062;BME280;65989;51.686;5.138;2024-03-07T06:56:13;102552.81;;;2.45;100.00
77062;BME280;65989;51.686;5.138;2024-03-07T06:58:40;102545.63;;;2.47;100.00
77062;BME280;65989;51.686;5.138;2024-03-07T07:01:05;102546.13;;;2.50;100.00
77062;BME280;65989;51.686;5.138;2024-03-07T07:03:35;102553.50;;;2.55;100.00
77062;BME280;65989;51.686;5.138;2024-03-07T07:06:01;102552.22;;;2.59;100.00
77062;BME280;65989;51.686;5.138;2024-03-07T07:08:26;102562.22;;;2.64;100.00
77062;BME280;65989;51.686;5.138;2024-03-07T07:10:54;102558.16;;;2.69;100.00
77062;BME280;65989;51.686;5.138;2024-03-07T07:13:21;102561.94;;;2.75;100.00
77062;BME280;65989;51.686;5.138;2024-03-07T07:15:46;102557.03;;;2.80;100.00
77062;BME280;65989;51.686;5.138;2024-03-07T07:18:12;102560.00;;;2.86;100.00
77062;BME280;65989;51.686;5.138;2024-03-07T07:20:38;102562.13;;;2.90;100.00
77062;BME280;65989;51.686;5.138;2024-03-07T07:23:04;102559.06;;;2.95;100.00
77062;BME280;65989;51.686;5.138;2024-03-07T07:25:30;102557.75;;;2.99;100.00
77062;BME280;65989;51.686;5.138;2024-03-07T07:27:55;102556.44;;;3.03;100.00
77062;BME280;65989;51.686;5.138;2024-03-07T07:30:22;102561.06;;;3.09;100.00
77062;BME280;65989;51.686;5.138;2024-03-07T07:32:49;102558.78;;;3.14;100.00
77062;BME280;65989;51.686;5.138;2024-03-07T07:35:15;102560.91;;;3.19;100.00
77062;BME280;65989;51.686;5.138;2024-03-07T07:37:50;102557.81;;;3.24;100.00
77062;BME280;65989;51.686;5.138;2024-03-07T07:40:22;102554.72;;;3.28;100.00
77062;BME280;65989;51.686;5.138;2024-03-07T07:42:50;102551.59;;;3.33;100.00
77062;BME280;65989;51.686;5.138;2024-03-07T07:45:18;102551.94;;;3.38;100.00
77062;BME280;65989;51.686;5.138;2024-03-07T07:47:45;102552.13;;;3.45;100.00
77062;BME280;65989;51.686;5.138;2024-03-07T07:50:13;102549.81;;;3.50;100.00
77062;BME280;65989;51.686;5.138;2024-03-07T07:52:49;102549.00;;;3.58;100.00
77062;BME280;65989;51.686;5.138;2024-03-07T07:55:19;102553.59;;;3.64;100.00
77062;BME280;65989;51.686;5.138;2024-03-07T07:57:46;102546.22;;;3.68;100.00
77062;BME280;65989;51.686;5.138;2024-03-07T08:00:16;102553.44;;;3.74;100.00
77062;BME280;65989;51.686;5.138;2024-03-07T08:02:59;102545.06;;;3.79;100.00
77062;BME280;65989;51.686;5.138;2024-03-07T08:05:26;102551.63;;;3.83;100.00
77062;BME280;65989;51.686;5.138;2024-03-07T08:07:54;102544.06;;;3.88;100.00
77062;BME280;65989;51.686;5.138;2024-03-07T08:10:23;102545.38;;;3.92;100.00
77062;BME280;65989;51.686;5.138;2024-03-07T08:12:49;102544.88;;;3.97;100.00
77062;BME280;65989;51.686;5.138;2024-03-07T08:15:15;102545.19;;;4.02;100.00
77062;BME280;65989;51.686;5.138;2024-03-07T08:17:45;102540.09;;;4.09;100.00
77062;BME280;65989;51.686;5.138;2024-03-07T08:20:15;102535.00;;;4.15;100.00
77062;BME280;65989;51.686;5.138;2024-03-07T08:22:43;102541.38;;;4.21;100.00
77062;BME280;65989;51.686;5.138;2024-03-07T08:25:13;102536.63;;;4.25;100.00
77062;BME280;65989;51.686;5.138;2024-03-07T08:27:40;102537.41;;;4.33;100.00
77062;BME280;65989;51.686;5.138;2024-03-07T08:30:07;102537.72;;;4.39;100.00
77062;BME280;65989;51.686;5.138;2024-03-07T08:32:41;102532.44;;;4.47;100.00
77062;BME280;65989;51.686;5.138;2024-03-07T08:35:08;102534.41;;;4.53;100.00
77062;BME280;65989;51.686;5.138;2024-03-07T08:37:38;102543.56;;;4.57;100.00
77062;BME280;65989;51.686;5.138;2024-03-07T08:40:04;102539.78;;;4.60;100.00
77062;BME280;65989;51.686;5.138;2024-03-07T08:42:33;102539.09;;;4.66;100.00
77062;BME280;65989;51.686;5.138;2024-03-07T08:45:00;102535.47;;;4.67;100.00
77062;BME280;65989;51.686;5.138;2024-03-07T08:47:25;102538.56;;;4.71;100.00
77062;BME280;65989;51.686;5.138;2024-03-07T08:49:51;102531.53;;;4.71;100.00
77062;BME280;65989;51.686;5.138;2024-03-07T08:52:16;102526.09;;;4.73;100.00
77062;BME280;65989;51.686;5.138;2024-03-07T08:54:42;102522.31;;;4.75;100.00
77062;BME280;65989;51.686;5.138;2024-03-07T08:57:08;102529.66;;;4.80;100.00
77062;BME280;65989;51.686;5.138;2024-03-07T08:59:34;102523.09;;;4.84;100.00
77062;BME280;65989;51.686;5.138;2024-03-07T09:01:59;102519.28;;;4.87;100.00
77062;BME280;65989;51.686;5.138;2024-03-07T09:04:27;102517.94;;;4.91;100.00
77062;BME280;65989;51.686;5.138;2024-03-07T09:06:54;102511.91;;;4.90;100.00
77062;BME280;65989;51.686;5.138;2024-03-07T09:09:20;102515.81;;;4.95;100.00
77062;BME280;65989;51.686;5.138;2024-03-07T09:11:45;102507.06;;;5.02;100.00
77062;BME280;65989;51.686;5.138;2024-03-07T09:14:10;102510.84;;;5.00;100.00
77062;BME280;65989;51.686;5.138;2024-03-07T09:16:36;102503.25;;;5.05;100.00
77062;BME280;65989;51.686;5.138;2024-03-07T09:19:01;102501.75;;;5.11;100.00
77062;BME280;65989;51.686;5.138;2024-03-07T09:21:28;102503.84;;;5.15;100.00
77062;BME280;65989;51.686;5.138;2024-03-07T09:23:53;102502.97;;;5.23;100.00
77062;BME280;65989;51.686;5.138;2024-03-07T09:26:19;102501.63;;;5.27;100.00
77062;BME280;65989;51.686;5.138;2024-03-07T09:28:45;102502.72;;;5.33;100.00
77062;BME280;65989;51.686;5.138;2024-03-07T09:31:14;102496.13;;;5.37;99.33
77062;BME280;65989;51.686;5.138;2024-03-07T09:33:39;102499.03;;;5.42;99.31
77062;BME280;65989;51.686;5.138;2024-03-07T09:36:05;102491.44;;;5.47;98.81
77062;BME280;65989;51.686;5.138;2024-03-07T09:38:32;102488.91;;;5.54;98.90
77062;BME280;65989;51.686;5.138;2024-03-07T09:40:57;102484.41;;;5.63;98.46
77062;BME280;65989;51.686;5.138;2024-03-07T09:43:26;102482.03;;;5.68;97.38
77062;BME280;65989;51.686;5.138;2024-03-07T09:45:52;102482.97;;;5.75;96.92
77062;BME280;65989;51.686;5.138;2024-03-07T09:48:19;102482.88;;;5.83;96.71
77062;BME280;65989;51.686;5.138;2024-03-07T09:50:50;102489.06;;;5.91;96.40
77062;BME280;65989;51.686;5.138;2024-03-07T09:53:18;102488.00;;;6.00;94.79
77062;BME280;65989;51.686;5.138;2024-03-07T09:55:45;102482.00;;;6.06;94.46
77062;BME280;65989;51.686;5.138;2024-03-07T09:58:12;102481.47;;;6.11;94.10
77062;BME280;65989;51.686;5.138;2024-03-07T10:00:40;102480.91;;;6.16;92.18
77062;BME280;65989;51.686;5.138;2024-03-07T10:03:08;102475.66;;;6.16;91.55
77062;BME280;65989;51.686;5.138;2024-03-07T10:05:34;102470.66;;;6.21;91.71
77062;BME280;65989;51.686;5.138;2024-03-07T10:08:00;102476.44;;;6.31;89.85
77062;BME280;65989;51.686;5.138;2024-03-07T10:10:26;102465.53;;;6.34;87.67
77062;BME280;65989;51.686;5.138;2024-03-07T10:12:52;102472.28;;;6.37;85.89
77062;BME280;65989;51.686;5.138;2024-03-07T10:15:28;102472.72;;;6.40;83.75
77062;BME280;65989;51.686;5.138;2024-03-07T10:17:53;102466.28;;;6.43;81.89
77062;BME280;65989;51.686;5.138;2024-03-07T10:20:19;102463.44;;;6.45;80.28
77062;BME280;65989;51.686;5.138;2024-03-07T10:22:48;102462.34;;;6.54;80.78
77062;BME280;65989;51.686;5.138;2024-03-07T10:25:18;102458.50;;;6.56;81.64
77062;BME280;65989;51.686;5.138;2024-03-07T10:27:46;102465.47;;;6.64;80.63
77062;BME280;65989;51.686;5.138;2024-03-07T10:30:14;102465.19;;;6.74;80.71
77062;BME280;65989;51.686;5.138;2024-03-07T10:32:51;102468.06;;;6.79;79.59
77062;BME280;65989;51.686;5.138;2024-03-07T10:35:22;102449.44;;;6.81;79.69
77062;BME280;65989;51.686;5.138;2024-03-07T10:37:50;102445.81;;;6.82;77.91
77062;BME280;65989;51.686;5.138;2024-03-07T10:40:15;102448.69;;;6.87;78.17
77062;BME280;65989;51.686;5.138;2024-03-07T10:42:45;102443.69;;;6.92;78.54
77062;BME280;65989;51.686;5.138;2024-03-07T10:45:19;102442.69;;;6.93;77.50
77062;BME280;65989;51.686;5.138;2024-03-07T10:47:57;102444.31;;;6.94;78.06
77062;BME280;65989;51.686;5.138;2024-03-07T10:50:43;102448.38;;;6.97;77.32
77062;BME280;65989;51.686;5.138;2024-03-07T10:55:59;102441.09;;;6.99;75.34
77062;BME280;65989;51.686;5.138;2024-03-07T10:58:37;102435.09;;;7.05;76.40
77062;BME280;65989;51.686;5.138;2024-03-07T11:01:04;102444.41;;;7.08;75.56
77062;BME280;65989;51.686;5.138;2024-03-07T11:03:37;102440.97;;;7.07;74.98
77062;BME280;65989;51.686;5.138;2024-03-07T11:06:03;102433.50;;;7.11;75.68
77062;BME280;65989;51.686;5.138;2024-03-07T11:08:36;102436.81;;;7.20;76.30
77062;BME280;65989;51.686;5.138;2024-03-07T11:11:02;102431.41;;;7.28;75.79
77062;BME280;65989;51.686;5.138;2024-03-07T11:13:30;102429.38;;;7.30;74.62
77062;BME280;65989;51.686;5.138;2024-03-07T11:15:56;102426.00;;;7.36;74.29
77062;BME280;65989;51.686;5.138;2024-03-07T11:18:25;102419.53;;;7.45;73.73
77062;BME280;65989;51.686;5.138;2024-03-07T11:20:51;102421.47;;;7.58;73.40
77062;BME280;65989;51.686;5.138;2024-03-07T11:23:30;102414.25;;;7.74;74.35
77062;BME280;65989;51.686;5.138;2024-03-07T11:28:29;102404.22;;;7.62;73.03
77062;BME280;65989;51.686;5.138;2024-03-07T11:31:07;102398.78;;;7.64;72.39
77062;BME280;65989;51.686;5.138;2024-03-07T11:33:36;102409.13;;;7.66;72.29
77062;BME280;65989;51.686;5.138;2024-03-07T11:36:01;102398.75;;;7.57;71.62
77062;BME280;65989;51.686;5.138;2024-03-07T11:38:32;102394.63;;;7.48;71.24
77062;BME280;65989;51.686;5.138;2024-03-07T11:41:00;102397.59;;;7.38;71.98
77062;BME280;65989;51.686;5.138;2024-03-07T11:43:31;102384.59;;;7.37;70.92
77062;BME280;65989;51.686;5.138;2024-03-07T11:45:56;102380.56;;;7.41;70.98
77062;BME280;65989;51.686;5.138;2024-03-07T11:48:23;102375.16;;;7.49;71.33
77062;BME280;65989;51.686;5.138;2024-03-07T11:50:48;102379.69;;;7.62;70.42
77062;BME280;65989;51.686;5.138;2024-03-07T11:53:14;102369.78;;;7.71;70.04
77062;BME280;65989;51.686;5.138;2024-03-07T11:55:40;102356.63;;;7.77;69.39
77062;BME280;65989;51.686;5.138;2024-03-07T11:58:20;102360.13;;;7.91;69.63
77062;BME280;65989;51.686;5.138;2024-03-07T12:00:51;102355.66;;;7.99;68.68
77062;BME280;65989;51.686;5.138;2024-03-07T12:03:18;102352.03;;;8.00;67.40
77062;BME280;65989;51.686;5.138;2024-03-07T12:05:47;102350.41;;;7.99;67.49
77062;BME280;65989;51.686;5.138;2024-03-07T12:08:13;102345.72;;;8.01;67.00
77062;BME280;65989;51.686;5.138;2024-03-07T12:10:40;102345.16;;;8.12;67.01
77062;BME280;65989;51.686;5.138;2024-03-07T12:13:12;102349.84;;;8.17;66.60
77062;BME280;65989;51.686;5.138;2024-03-07T12:15:41;102334.44;;;8.27;66.52
77062;BME280;65989;51.686;5.138;2024-03-07T12:18:09;102333.84;;;8.45;66.21
77062;BME280;65989;51.686;5.138;2024-03-07T12:20:38;102330.44;;;8.58;65.58
77062;BME280;65989;51.686;5.138;2024-03-07T12:23:05;102316.00;;;8.74;65.06
77062;BME280;65989;51.686;5.138;2024-03-07T12:25:36;102317.63;;;8.82;64.91
77062;BME280;65989;51.686;5.138;2024-03-07T12:28:06;102322.69;;;8.97;64.98
77062;BME280;65989;51.686;5.138;2024-03-07T12:30:49;102309.63;;;9.22;65.42
77062;BME280;65989;51.686;5.138;2024-03-07T12:33:17;102311.00;;;9.38;63.35
77062;BME280;65989;51.686;5.138;2024-03-07T12:35:43;102306.28;;;9.47;61.93
77062;BME280;65989;51.686;5.138;2024-03-07T12:38:10;102288.59;;;9.48;61.52
77062;BME280;65989;51.686;5.138;2024-03-07T12:40:41;102295.31;;;9.44;61.75
77062;BME280;65989;51.686;5.138;2024-03-07T12:43:17;102286.50;;;9.56;63.75
77062;BME280;65989;51.686;5.138;2024-03-07T12:45:50;102297.72;;;9.59;62.28
77062;BME280;65989;51.686;5.138;2024-03-07T12:48:20;102294.03;;;9.60;61.70
77062;BME280;65989;51.686;5.138;2024-03-07T12:50:49;102290.22;;;9.49;62.79
77062;BME280;65989;51.686;5.138;2024-03-07T12:53:19;102292.03;;;9.48;62.03
77062;BME280;65989;51.686;5.138;2024-03-07T12:55:45;102286.13;;;9.46;60.76
77062;BME280;65989;51.686;5.138;2024-03-07T12:58:11;102272.72;;;9.48;61.53
77062;BME280;65989;51.686;5.138;2024-03-07T13:00:38;102283.69;;;9.51;60.93